createdAt,value
2022-11-17T00:00:24.000Z,10.92
2022-11-17T00:01:24.000Z,10.91
2022-11-17T00:02:23.000Z,10.91
2022-11-17T00:03:23.000Z,10.91
2022-11-17T00:04:26.000Z,10.91
2022-11-17T00:05:24.000Z,10.89
2022-11-17T00:06:23.000Z,10.91
2022-11-17T00:07:23.000Z,10.89
2022-11-17T00:08:23.000Z,10.90
2022-11-17T00:09:24.000Z,10.90
2022-11-17T00:10:23.000Z,10.88
2022-11-17T00:11:23.000Z,10.90
2022-11-17T00:12:29.000Z,10.89
2022-11-17T00:13:29.000Z,10.85
2022-11-17T00:14:29.000Z,10.86
2022-11-17T00:15:24.000Z,10.83
2022-11-17T00:16:23.000Z,10.83
2022-11-17T00:17:23.000Z,10.84
2022-11-17T00:18:29.000Z,10.83
2022-11-17T00:19:29.000Z,10.84
2022-11-17T00:20:29.000Z,10.82
2022-11-17T00:21:27.000Z,10.81
2022-11-17T00:22:24.000Z,10.84
2022-11-17T00:23:24.000Z,10.82
2022-11-17T00:24:23.000Z,10.84
2022-11-17T00:25:24.000Z,10.82
2022-11-17T00:26:26.000Z,10.80
2022-11-17T00:27:23.000Z,10.78
2022-11-17T00:28:23.000Z,10.78
2022-11-17T00:29:23.000Z,10.78
2022-11-17T00:30:28.000Z,10.73
2022-11-17T00:31:30.000Z,10.73
2022-11-17T00:32:28.000Z,10.74
2022-11-17T00:33:28.000Z,10.73
2022-11-17T00:34:23.000Z,10.74
2022-11-17T00:35:23.000Z,10.73
2022-11-17T00:36:23.000Z,10.74
2022-11-17T00:37:24.000Z,10.74
2022-11-17T00:38:23.000Z,10.74
2022-11-17T00:39:23.000Z,10.71
2022-11-17T00:40:23.000Z,10.73
2022-11-17T00:41:23.000Z,10.72
2022-11-17T00:42:23.000Z,10.69
2022-11-17T00:43:23.000Z,10.71
2022-11-17T00:44:23.000Z,10.68
2022-11-17T00:45:23.000Z,10.68
2022-11-17T00:46:23.000Z,10.65
2022-11-17T00:47:23.000Z,10.66
2022-11-17T00:48:23.000Z,10.63
2022-11-17T00:49:26.000Z,10.62
2022-11-17T00:50:23.000Z,10.62
2022-11-17T00:51:23.000Z,10.62
2022-11-17T00:52:23.000Z,10.62
2022-11-17T00:53:23.000Z,10.61
2022-11-17T00:54:23.000Z,10.60
2022-11-17T00:55:23.000Z,10.58
2022-11-17T00:56:24.000Z,10.56
2022-11-17T00:57:23.000Z,10.54
2022-11-17T00:58:23.000Z,10.56
2022-11-17T00:59:23.000Z,10.56
2022-11-17T01:00:23.000Z,10.56
2022-11-17T01:01:23.000Z,10.55
2022-11-17T01:02:22.000Z,10.55
2022-11-17T01:03:22.000Z,10.54
2022-11-17T01:04:23.000Z,10.54
2022-11-17T01:05:23.000Z,10.53
2022-11-17T01:06:23.000Z,10.54
2022-11-17T01:07:23.000Z,10.54
2022-11-17T01:08:23.000Z,10.54
2022-11-17T01:09:22.000Z,10.54
2022-11-17T01:10:23.000Z,10.55
2022-11-17T01:11:23.000Z,10.55
2022-11-17T01:12:23.000Z,10.55
2022-11-17T01:13:22.000Z,10.54
2022-11-17T01:14:25.000Z,10.54
2022-11-17T01:15:23.000Z,10.52
2022-11-17T01:16:24.000Z,10.50
2022-11-17T01:17:23.000Z,10.52
2022-11-17T01:18:22.000Z,10.50
2022-11-17T01:19:23.000Z,10.52
2022-11-17T01:20:23.000Z,10.50
2022-11-17T01:21:25.000Z,10.50
2022-11-17T01:22:23.000Z,10.54
2022-11-17T01:23:23.000Z,10.51
2022-11-17T01:24:23.000Z,10.52
2022-11-17T01:25:23.000Z,10.53
2022-11-17T01:26:25.000Z,10.53
2022-11-17T01:27:23.000Z,10.53
2022-11-17T01:28:22.000Z,10.55
2022-11-17T01:29:22.000Z,10.54
2022-11-17T01:30:22.000Z,10.54
2022-11-17T01:31:35.000Z,10.54
2022-11-17T01:32:23.000Z,10.56
2022-11-17T01:33:22.000Z,10.54
2022-11-17T01:34:23.000Z,10.55
2022-11-17T01:35:22.000Z,10.54
2022-11-17T01:36:29.000Z,10.56
2022-11-17T01:37:22.000Z,10.56
2022-11-17T01:38:22.000Z,10.56
2022-11-17T01:39:25.000Z,10.55
2022-11-17T01:40:22.000Z,10.56
2022-11-17T01:41:25.000Z,10.58
2022-11-17T01:42:24.000Z,10.59
2022-11-17T01:43:34.000Z,10.57
2022-11-17T01:44:33.000Z,10.58
2022-11-17T01:45:23.000Z,10.56
2022-11-17T01:46:33.000Z,10.58
2022-11-17T01:47:46.000Z,10.56
2022-11-17T01:48:23.000Z,10.56
2022-11-17T01:49:26.000Z,10.59
2022-11-17T01:50:35.000Z,10.55
2022-11-17T01:51:23.000Z,10.58
2022-11-17T01:52:24.000Z,10.56
2022-11-17T01:53:24.000Z,10.56
2022-11-17T01:54:25.000Z,10.58
2022-11-17T01:55:31.000Z,10.54
2022-11-17T01:56:29.000Z,10.54
2022-11-17T01:57:30.000Z,10.54
2022-11-17T01:58:45.000Z,10.54
2022-11-17T01:59:33.000Z,10.54
2022-11-17T02:00:23.000Z,10.53
2022-11-17T02:01:23.000Z,10.53
2022-11-17T02:02:23.000Z,10.53
2022-11-17T02:03:25.000Z,10.50
2022-11-17T02:04:31.000Z,10.50
2022-11-17T02:05:36.000Z,10.51
2022-11-17T02:06:34.000Z,10.49
2022-11-17T02:07:25.000Z,10.50
2022-11-17T02:08:27.000Z,10.50
2022-11-17T02:09:24.000Z,10.49
2022-11-17T02:10:23.000Z,10.48
2022-11-17T02:11:24.000Z,10.51
2022-11-17T02:12:25.000Z,10.50
2022-11-17T02:13:23.000Z,10.51
2022-11-17T02:14:23.000Z,10.50
2022-11-17T02:15:24.000Z,10.49
2022-11-17T02:16:23.000Z,10.53
2022-11-17T02:17:32.000Z,10.51
2022-11-17T02:18:23.000Z,10.53
2022-11-17T02:19:26.000Z,10.50
2022-11-17T02:20:34.000Z,10.51
2022-11-17T02:21:41.000Z,10.53
2022-11-17T02:22:33.000Z,10.54
2022-11-17T02:23:33.000Z,10.53
2022-11-17T02:24:46.000Z,10.52
2022-11-17T02:25:33.000Z,10.54
2022-11-17T02:26:46.000Z,10.53
2022-11-17T02:27:44.000Z,10.54
2022-11-17T02:28:29.000Z,10.54
2022-11-17T02:29:35.000Z,10.55
2022-11-17T02:30:32.000Z,10.54
2022-11-17T02:31:34.000Z,10.55
2022-11-17T02:32:32.000Z,10.56
2022-11-17T02:33:36.000Z,10.58
2022-11-17T02:34:36.000Z,10.56
2022-11-17T02:35:34.000Z,10.59
2022-11-17T02:36:46.000Z,10.57
2022-11-17T02:37:36.000Z,10.56
2022-11-17T02:38:38.000Z,10.58
2022-11-17T02:39:31.000Z,10.55
2022-11-17T02:40:29.000Z,10.57
2022-11-17T02:41:29.000Z,10.56
2022-11-17T02:42:45.000Z,10.56
2022-11-17T02:43:36.000Z,10.58
2022-11-17T02:44:45.000Z,10.59
2022-11-17T02:45:28.000Z,10.56
2022-11-17T02:46:26.000Z,10.59
2022-11-17T02:47:28.000Z,10.61
2022-11-17T02:48:31.000Z,10.61
2022-11-17T02:49:32.000Z,10.61
2022-11-17T02:50:25.000Z,10.61
2022-11-17T02:51:23.000Z,10.63
2022-11-17T02:52:25.000Z,10.61
2022-11-17T02:53:25.000Z,10.61
2022-11-17T02:54:27.000Z,10.60
2022-11-17T02:55:23.000Z,10.60
2022-11-17T02:56:23.000Z,10.61
2022-11-17T02:57:41.000Z,10.61
2022-11-17T02:58:23.000Z,10.61
2022-11-17T02:59:32.000Z,10.61
2022-11-17T03:00:23.000Z,10.64
2022-11-17T03:01:40.000Z,10.61
2022-11-17T03:02:36.000Z,10.62
2022-11-17T03:03:34.000Z,10.60
2022-11-17T03:04:33.000Z,10.60
2022-11-17T03:05:33.000Z,10.60
2022-11-17T03:06:45.000Z,10.60
2022-11-17T03:07:45.000Z,10.60
2022-11-17T03:08:43.000Z,10.60
2022-11-17T03:09:43.000Z,10.60
2022-11-17T03:10:33.000Z,10.60
2022-11-17T03:11:33.000Z,10.60
2022-11-17T03:12:32.000Z,10.60
2022-11-17T03:13:33.000Z,10.61
2022-11-17T03:14:38.000Z,10.60
2022-11-17T03:15:37.000Z,10.60
2022-11-17T03:16:34.000Z,10.60
2022-11-17T03:17:33.000Z,10.60
2022-11-17T03:18:32.000Z,10.59
2022-11-17T03:19:39.000Z,10.59
2022-11-17T03:20:33.000Z,10.56
2022-11-17T03:21:30.000Z,10.56
2022-11-17T03:22:31.000Z,10.55
2022-11-17T03:23:36.000Z,10.55
2022-11-17T03:24:28.000Z,10.56
2022-11-17T03:25:25.000Z,10.56
2022-11-17T03:26:28.000Z,10.54
2022-11-17T03:27:30.000Z,10.54
2022-11-17T03:28:27.000Z,10.54
2022-11-17T03:29:29.000Z,10.56
2022-11-17T03:30:26.000Z,10.55
2022-11-17T03:31:25.000Z,10.55
2022-11-17T03:32:26.000Z,10.56
2022-11-17T03:33:25.000Z,10.54
2022-11-17T03:34:26.000Z,10.54
2022-11-17T03:35:29.000Z,10.55
2022-11-17T03:36:32.000Z,10.54
2022-11-17T03:37:26.000Z,10.56
2022-11-17T03:38:27.000Z,10.54
2022-11-17T03:39:43.000Z,10.55
2022-11-17T03:40:27.000Z,10.56
2022-11-17T03:41:26.000Z,10.56
2022-11-17T03:42:27.000Z,10.56
2022-11-17T03:43:25.000Z,10.56
2022-11-17T03:44:26.000Z,10.57
2022-11-17T03:45:30.000Z,10.59
2022-11-17T03:46:25.000Z,10.59
2022-11-17T03:47:26.000Z,10.59
2022-11-17T03:48:33.000Z,10.59
2022-11-17T03:49:41.000Z,10.59
2022-11-17T03:50:29.000Z,10.57
2022-11-17T03:51:28.000Z,10.58
2022-11-17T03:52:25.000Z,10.58
2022-11-17T03:53:23.000Z,10.58
2022-11-17T03:54:23.000Z,10.59
2022-11-17T03:55:28.000Z,10.60
2022-11-17T03:56:43.000Z,10.60
2022-11-17T03:57:54.000Z,10.60
2022-11-17T03:58:29.000Z,10.58
2022-11-17T03:59:30.000Z,10.60
2022-11-17T04:00:24.000Z,10.58
2022-11-17T04:01:26.000Z,10.58
2022-11-17T04:02:25.000Z,10.60
2022-11-17T04:03:28.000Z,10.60
2022-11-17T04:04:23.000Z,10.59
2022-11-17T04:05:23.000Z,10.60
2022-11-17T04:06:23.000Z,10.57
2022-11-17T04:07:23.000Z,10.59
2022-11-17T04:08:28.000Z,10.59
2022-11-17T04:09:23.000Z,10.58
2022-11-17T04:10:25.000Z,10.60
2022-11-17T04:11:29.000Z,10.56
2022-11-17T04:12:28.000Z,10.57
2022-11-17T04:13:28.000Z,10.60
2022-11-17T04:14:28.000Z,10.59
2022-11-17T04:15:28.000Z,10.60
2022-11-17T04:16:23.000Z,10.60
2022-11-17T04:17:23.000Z,10.60
2022-11-17T04:18:24.000Z,10.60
2022-11-17T04:19:23.000Z,10.60
2022-11-17T04:20:23.000Z,10.61
2022-11-17T04:21:23.000Z,10.61
2022-11-17T04:22:23.000Z,10.60
2022-11-17T04:23:24.000Z,10.61
2022-11-17T04:24:23.000Z,10.61
2022-11-17T04:25:44.000Z,10.61
2022-11-17T04:26:28.000Z,10.64
2022-11-17T04:27:28.000Z,10.61
2022-11-17T04:28:30.000Z,10.62
2022-11-17T04:29:23.000Z,10.63
2022-11-17T04:30:23.000Z,10.62
2022-11-17T04:31:25.000Z,10.62
2022-11-17T04:32:23.000Z,10.62
2022-11-17T04:33:23.000Z,10.62
2022-11-17T04:34:23.000Z,10.62
2022-11-17T04:35:23.000Z,10.62
2022-11-17T04:36:25.000Z,10.61
2022-11-17T04:37:23.000Z,10.62
2022-11-17T04:38:23.000Z,10.62
2022-11-17T04:39:23.000Z,10.62
2022-11-17T04:40:23.000Z,10.64
2022-11-17T04:41:28.000Z,10.62
2022-11-17T04:42:23.000Z,10.63
2022-11-17T04:43:23.000Z,10.60
2022-11-17T04:44:26.000Z,10.62
2022-11-17T04:45:23.000Z,10.60
2022-11-17T04:46:24.000Z,10.62
2022-11-17T04:47:23.000Z,10.62
2022-11-17T04:48:23.000Z,10.62
2022-11-17T04:49:24.000Z,10.61
2022-11-17T04:50:23.000Z,10.60
2022-11-17T04:51:24.000Z,10.61
2022-11-17T04:52:23.000Z,10.61
2022-11-17T04:53:23.000Z,10.61
2022-11-17T04:54:26.000Z,10.60
2022-11-17T04:55:23.000Z,10.61
2022-11-17T04:56:24.000Z,10.61
2022-11-17T04:57:23.000Z,10.60
2022-11-17T04:58:23.000Z,10.60
2022-11-17T04:59:23.000Z,10.61
2022-11-17T05:00:22.000Z,10.61
2022-11-17T05:01:25.000Z,10.60
2022-11-17T05:02:22.000Z,10.60
2022-11-17T05:03:23.000Z,10.61
2022-11-17T05:04:28.000Z,10.60
2022-11-17T05:05:22.000Z,10.58
2022-11-17T05:06:31.000Z,10.60
2022-11-17T05:07:23.000Z,10.60
2022-11-17T05:08:22.000Z,10.58
2022-11-17T05:09:22.000Z,10.59
2022-11-17T05:10:28.000Z,10.59
2022-11-17T05:11:28.000Z,10.60
2022-11-17T05:12:28.000Z,10.60
2022-11-17T05:13:25.000Z,10.58
2022-11-17T05:14:24.000Z,10.57
2022-11-17T05:15:37.000Z,10.60
2022-11-17T05:16:28.000Z,10.56
2022-11-17T05:17:22.000Z,10.56
2022-11-17T05:18:22.000Z,10.56
2022-11-17T05:19:25.000Z,10.56
2022-11-17T05:20:22.000Z,10.57
2022-11-17T05:21:23.000Z,10.56
2022-11-17T05:22:28.000Z,10.56
2022-11-17T05:23:28.000Z,10.55
2022-11-17T05:24:22.000Z,10.55
2022-11-17T05:25:22.000Z,10.54
2022-11-17T05:26:28.000Z,10.54
2022-11-17T05:27:23.000Z,10.55
2022-11-17T05:28:22.000Z,10.53
2022-11-17T05:29:22.000Z,10.53
2022-11-17T05:30:22.000Z,10.51
2022-11-17T05:31:24.000Z,10.53
2022-11-17T05:32:22.000Z,10.55
2022-11-17T05:33:22.000Z,10.54
2022-11-17T05:34:22.000Z,10.54
2022-11-17T05:35:23.000Z,10.54
2022-11-17T05:36:24.000Z,10.53
2022-11-17T05:37:22.000Z,10.53
2022-11-17T05:38:22.000Z,10.50
2022-11-17T05:39:22.000Z,10.49
2022-11-17T05:40:22.000Z,10.48
2022-11-17T05:41:23.000Z,10.48
2022-11-17T05:42:23.000Z,10.49
2022-11-17T05:43:23.000Z,10.49
2022-11-17T05:44:23.000Z,10.49
2022-11-17T05:45:22.000Z,10.49
2022-11-17T05:46:23.000Z,10.48
2022-11-17T05:47:22.000Z,10.49
2022-11-17T05:48:23.000Z,10.48
2022-11-17T05:49:22.000Z,10.45
2022-11-17T05:50:22.000Z,10.48
2022-11-17T05:51:23.000Z,10.48
2022-11-17T05:52:22.000Z,10.45
2022-11-17T05:53:23.000Z,10.45
2022-11-17T05:54:22.000Z,10.46
2022-11-17T05:55:23.000Z,10.45
2022-11-17T05:56:33.000Z,10.47
2022-11-17T05:57:28.000Z,10.47
2022-11-17T05:58:29.000Z,10.46
2022-11-17T05:59:40.000Z,10.48
2022-11-17T06:00:23.000Z,10.47
2022-11-17T06:01:23.000Z,10.48
2022-11-17T06:02:28.000Z,10.49
2022-11-17T06:03:28.000Z,10.50
2022-11-17T06:04:23.000Z,10.49
2022-11-17T06:05:24.000Z,10.50
2022-11-17T06:06:24.000Z,10.50
2022-11-17T06:07:23.000Z,10.51
2022-11-17T06:08:24.000Z,10.50
2022-11-17T06:09:25.000Z,10.51
2022-11-17T06:10:23.000Z,10.52
2022-11-17T06:11:23.000Z,10.51
2022-11-17T06:12:23.000Z,10.54
2022-11-17T06:13:27.000Z,10.54
2022-11-17T06:14:23.000Z,10.55
2022-11-17T06:15:23.000Z,10.55
2022-11-17T06:16:26.000Z,10.55
2022-11-17T06:17:33.000Z,10.56
2022-11-17T06:18:27.000Z,10.59
2022-11-17T06:19:35.000Z,10.56
2022-11-17T06:20:26.000Z,10.60
2022-11-17T06:21:24.000Z,10.62
2022-11-17T06:22:25.000Z,10.63
2022-11-17T06:23:27.000Z,10.63
2022-11-17T06:24:23.000Z,10.64
2022-11-17T06:25:23.000Z,10.65
2022-11-17T06:26:23.000Z,10.66
2022-11-17T06:27:25.000Z,10.64
2022-11-17T06:28:26.000Z,10.67
2022-11-17T06:29:24.000Z,10.67
2022-11-17T06:30:23.000Z,10.68
2022-11-17T06:31:24.000Z,10.69
2022-11-17T06:32:23.000Z,10.67
2022-11-17T06:33:28.000Z,10.68
2022-11-17T06:34:24.000Z,10.68
2022-11-17T06:35:23.000Z,10.67
2022-11-17T06:36:23.000Z,10.67
2022-11-17T06:37:23.000Z,10.68
2022-11-17T06:38:23.000Z,10.68
2022-11-17T06:39:23.000Z,10.68
2022-11-17T06:40:23.000Z,10.71
2022-11-17T06:41:23.000Z,10.68
2022-11-17T06:42:38.000Z,10.70
2022-11-17T06:43:23.000Z,10.69
2022-11-17T06:44:23.000Z,10.69
2022-11-17T06:45:23.000Z,10.70
2022-11-17T06:46:23.000Z,10.69
2022-11-17T06:47:22.000Z,10.68
2022-11-17T06:48:25.000Z,10.70
2022-11-17T06:49:22.000Z,10.68
2022-11-17T06:50:23.000Z,10.69
2022-11-17T06:51:22.000Z,10.69
2022-11-17T06:52:23.000Z,10.69
2022-11-17T06:53:24.000Z,10.68
2022-11-17T06:54:22.000Z,10.69
2022-11-17T06:55:23.000Z,10.69
2022-11-17T06:56:23.000Z,10.71
2022-11-17T06:57:22.000Z,10.72
2022-11-17T06:58:23.000Z,10.70
2022-11-17T06:59:22.000Z,10.72
2022-11-17T07:00:23.000Z,10.72
2022-11-17T07:01:22.000Z,10.73
2022-11-17T07:02:22.000Z,10.73
2022-11-17T07:03:22.000Z,10.73
2022-11-17T07:04:22.000Z,10.74
2022-11-17T07:05:22.000Z,10.74
2022-11-17T07:06:22.000Z,10.75
2022-11-17T07:07:22.000Z,10.75
2022-11-17T07:08:22.000Z,10.78
2022-11-17T07:09:24.000Z,10.79
2022-11-17T07:10:23.000Z,10.76
2022-11-17T07:11:22.000Z,10.78
2022-11-17T07:12:22.000Z,10.79
2022-11-17T07:13:23.000Z,10.78
2022-11-17T07:14:22.000Z,10.79
2022-11-17T07:15:23.000Z,10.79
2022-11-17T07:16:22.000Z,10.79
2022-11-17T07:17:22.000Z,10.79
2022-11-17T07:18:22.000Z,10.79
2022-11-17T07:19:22.000Z,10.79
2022-11-17T07:20:22.000Z,10.79
2022-11-17T07:21:22.000Z,10.79
2022-11-17T07:22:22.000Z,10.79
2022-11-17T07:23:22.000Z,10.79
2022-11-17T07:24:22.000Z,10.79
2022-11-17T07:25:22.000Z,10.79
2022-11-17T07:26:22.000Z,10.80
2022-11-17T07:27:22.000Z,10.82
2022-11-17T07:28:23.000Z,10.79
2022-11-17T07:29:24.000Z,10.79
2022-11-17T07:30:23.000Z,10.79
2022-11-17T07:31:22.000Z,10.78
2022-11-17T07:32:22.000Z,10.79
2022-11-17T07:33:22.000Z,10.79
2022-11-17T07:34:22.000Z,10.80
2022-11-17T07:35:22.000Z,10.80
2022-11-17T07:36:22.000Z,10.82
2022-11-17T07:37:22.000Z,10.80
2022-11-17T07:38:22.000Z,10.83
2022-11-17T07:39:22.000Z,10.83
2022-11-17T07:40:22.000Z,10.81
2022-11-17T07:41:22.000Z,10.84
2022-11-17T07:42:22.000Z,10.85
2022-11-17T07:43:22.000Z,10.86
2022-11-17T07:44:23.000Z,10.87
2022-11-17T07:45:44.000Z,10.89
2022-11-17T07:47:08.000Z,10.88
2022-11-17T07:47:58.000Z,10.92
2022-11-17T07:48:22.000Z,10.95
2022-11-17T07:49:23.000Z,10.93
2022-11-17T07:50:23.000Z,10.98
2022-11-17T07:51:22.000Z,10.98
2022-11-17T07:52:30.000Z,10.97
2022-11-17T07:53:22.000Z,10.97
2022-11-17T07:54:22.000Z,10.99
2022-11-17T07:55:23.000Z,11.01
2022-11-17T07:56:22.000Z,11.03
2022-11-17T07:57:23.000Z,11.03
2022-11-17T07:58:23.000Z,11.05
2022-11-17T07:59:22.000Z,11.04
2022-11-17T08:00:23.000Z,11.05
2022-11-17T08:01:25.000Z,11.07
2022-11-17T08:02:22.000Z,11.07
2022-11-17T08:03:22.000Z,11.08
2022-11-17T08:04:22.000Z,11.13
2022-11-17T08:05:24.000Z,11.13
2022-11-17T08:06:23.000Z,11.14
2022-11-17T08:07:22.000Z,11.12
2022-11-17T08:08:22.000Z,11.10
2022-11-17T08:09:22.000Z,11.13
2022-11-17T08:10:26.000Z,11.13
2022-11-17T08:11:22.000Z,11.13
2022-11-17T08:12:22.000Z,11.13
2022-11-17T08:13:23.000Z,11.13
2022-11-17T08:14:22.000Z,11.14
2022-11-17T08:15:22.000Z,11.12
2022-11-17T08:16:25.000Z,11.14
2022-11-17T08:17:22.000Z,11.15
2022-11-17T08:18:23.000Z,11.15
2022-11-17T08:19:22.000Z,11.16
2022-11-17T08:20:24.000Z,11.17
2022-11-17T08:21:23.000Z,11.16
2022-11-17T08:22:22.000Z,11.17
2022-11-17T08:23:22.000Z,11.19
2022-11-17T08:24:22.000Z,11.20
2022-11-17T08:25:24.000Z,11.21
2022-11-17T08:26:23.000Z,11.22
2022-11-17T08:27:23.000Z,11.26
2022-11-17T08:28:22.000Z,11.26
2022-11-17T08:29:23.000Z,11.26
2022-11-17T08:30:24.000Z,11.28
2022-11-17T08:31:22.000Z,11.28
2022-11-17T08:32:22.000Z,11.27
2022-11-17T08:33:22.000Z,11.28
2022-11-17T08:34:22.000Z,11.30
2022-11-17T08:35:23.000Z,11.31
2022-11-17T08:36:22.000Z,11.32
2022-11-17T08:37:22.000Z,11.33
2022-11-17T08:38:27.000Z,11.33
2022-11-17T08:39:22.000Z,11.34
2022-11-17T08:40:23.000Z,11.35
2022-11-17T08:41:23.000Z,11.37
2022-11-17T08:42:22.000Z,11.35
2022-11-17T08:43:23.000Z,11.35
2022-11-17T08:44:22.000Z,11.38
2022-11-17T08:45:23.000Z,11.37
2022-11-17T08:46:23.000Z,11.38
2022-11-17T08:47:22.000Z,11.39
2022-11-17T08:48:22.000Z,11.39
2022-11-17T08:49:22.000Z,11.40
2022-11-17T08:50:23.000Z,11.39
2022-11-17T08:51:23.000Z,11.40
2022-11-17T08:52:22.000Z,11.40
2022-11-17T08:53:22.000Z,11.44
2022-11-17T08:54:22.000Z,11.44
2022-11-17T08:55:24.000Z,11.45
2022-11-17T08:56:22.000Z,11.45
2022-11-17T08:57:22.000Z,11.49
2022-11-17T08:58:22.000Z,11.48
2022-11-17T08:59:23.000Z,11.48
2022-11-17T09:00:22.000Z,11.53
2022-11-17T09:01:22.000Z,11.52
2022-11-17T09:02:23.000Z,11.56
2022-11-17T09:03:23.000Z,11.57
2022-11-17T09:04:23.000Z,11.59
2022-11-17T09:05:23.000Z,11.65
2022-11-17T09:06:23.000Z,11.66
2022-11-17T09:07:23.000Z,11.70
2022-11-17T09:08:23.000Z,11.76
2022-11-17T09:09:23.000Z,11.77
2022-11-17T09:10:23.000Z,11.83
2022-11-17T09:11:23.000Z,11.92
2022-11-17T09:12:22.000Z,11.97
2022-11-17T09:13:23.000Z,11.99
2022-11-17T09:14:23.000Z,12.03
2022-11-17T09:15:23.000Z,12.08
2022-11-17T09:16:24.000Z,12.10
2022-11-17T09:17:23.000Z,12.16
2022-11-17T09:18:23.000Z,12.15
2022-11-17T09:19:23.000Z,12.14
2022-11-17T09:20:23.000Z,12.15
2022-11-17T09:21:24.000Z,12.16
2022-11-17T09:22:23.000Z,12.21
2022-11-17T09:23:23.000Z,12.21
2022-11-17T09:24:25.000Z,12.25
2022-11-17T09:25:23.000Z,12.26
2022-11-17T09:26:23.000Z,12.27
2022-11-17T09:27:23.000Z,12.26
2022-11-17T09:28:23.000Z,12.29
2022-11-17T09:29:23.000Z,12.30
2022-11-17T09:30:23.000Z,12.32
2022-11-17T09:31:23.000Z,12.35
2022-11-17T09:32:22.000Z,12.38
2022-11-17T09:33:23.000Z,12.40
2022-11-17T09:34:23.000Z,12.43
2022-11-17T09:35:23.000Z,12.44
2022-11-17T09:36:22.000Z,12.55
2022-11-17T09:37:25.000Z,12.58
2022-11-17T09:38:23.000Z,12.57
2022-11-17T09:39:22.000Z,12.58
2022-11-17T09:40:22.000Z,12.65
2022-11-17T09:41:42.000Z,12.63
2022-11-17T09:42:23.000Z,12.63
2022-11-17T09:43:28.000Z,12.65
2022-11-17T09:44:33.000Z,12.64
2022-11-17T09:45:32.000Z,12.68
2022-11-17T09:46:43.000Z,12.64
2022-11-17T09:47:33.000Z,12.63
2022-11-17T09:48:38.000Z,12.66
2022-11-17T09:49:33.000Z,12.63
2022-11-17T09:50:29.000Z,12.62
2022-11-17T09:51:25.000Z,12.59
2022-11-17T09:52:41.000Z,12.56
2022-11-17T09:53:43.000Z,12.56
2022-11-17T09:54:35.000Z,12.50
2022-11-17T09:55:30.000Z,12.49
2022-11-17T09:56:25.000Z,12.45
2022-11-17T09:57:33.000Z,12.44
2022-11-17T09:58:43.000Z,12.38
2022-11-17T09:59:26.000Z,12.37
2022-11-17T10:00:23.000Z,12.33
2022-11-17T10:01:26.000Z,12.31
2022-11-17T10:02:23.000Z,12.28
2022-11-17T10:03:41.000Z,12.27
2022-11-17T10:04:27.000Z,12.21
2022-11-17T10:05:29.000Z,12.19
2022-11-17T10:06:25.000Z,12.17
2022-11-17T10:07:23.000Z,12.13
2022-11-17T10:08:33.000Z,12.10
2022-11-17T10:09:35.000Z,12.07
2022-11-17T10:10:38.000Z,12.07
2022-11-17T10:11:31.000Z,12.04
2022-11-17T10:12:32.000Z,11.99
2022-11-17T10:13:30.000Z,11.95
2022-11-17T10:14:26.000Z,11.92
2022-11-17T10:15:28.000Z,11.90
2022-11-17T10:16:23.000Z,11.84
2022-11-17T10:17:23.000Z,11.80
2022-11-17T10:18:23.000Z,11.80
2022-11-17T10:19:26.000Z,11.82
2022-11-17T10:20:23.000Z,11.81
2022-11-17T10:21:23.000Z,11.77
2022-11-17T10:22:32.000Z,11.77
2022-11-17T10:23:32.000Z,11.75
2022-11-17T10:24:32.000Z,11.77
2022-11-17T10:25:33.000Z,11.77
2022-11-17T10:26:23.000Z,11.75
2022-11-17T10:27:25.000Z,11.72
2022-11-17T10:28:29.000Z,11.68
2022-11-17T10:29:23.000Z,11.68
2022-11-17T10:30:23.000Z,11.70
2022-11-17T10:31:23.000Z,11.71
2022-11-17T10:32:24.000Z,11.70
2022-11-17T10:33:45.000Z,11.73
2022-11-17T10:34:32.000Z,11.72
2022-11-17T10:35:29.000Z,11.75
2022-11-17T10:36:28.000Z,11.73
2022-11-17T10:37:27.000Z,11.68
2022-11-17T10:38:26.000Z,11.64
2022-11-17T10:39:30.000Z,11.66
2022-11-17T10:40:25.000Z,11.64
2022-11-17T10:41:31.000Z,11.69
2022-11-17T10:42:24.000Z,11.58
2022-11-17T10:43:26.000Z,11.50
2022-11-17T10:44:25.000Z,11.52
2022-11-17T10:45:22.000Z,11.35
2022-11-17T10:46:22.000Z,11.32
2022-11-17T10:47:29.000Z,11.33
2022-11-17T10:48:34.000Z,11.33
2022-11-17T10:49:30.000Z,11.34
2022-11-17T10:50:24.000Z,11.34
2022-11-17T10:51:25.000Z,11.27
2022-11-17T10:52:22.000Z,11.31
2022-11-17T10:53:29.000Z,11.31
2022-11-17T10:54:22.000Z,11.30
2022-11-17T10:55:28.000Z,11.33
2022-11-17T10:56:23.000Z,11.34
2022-11-17T10:57:23.000Z,11.36
2022-11-17T10:58:25.000Z,11.39
2022-11-17T10:59:42.000Z,11.33
2022-11-17T11:00:31.000Z,11.35
2022-11-17T11:01:31.000Z,11.36
2022-11-17T11:02:42.000Z,11.37
2022-11-17T11:03:27.000Z,11.39
2022-11-17T11:04:29.000Z,11.39
2022-11-17T11:05:23.000Z,11.41
2022-11-17T11:06:26.000Z,11.45
2022-11-17T11:07:23.000Z,11.47
2022-11-17T11:08:44.000Z,11.53
2022-11-17T11:09:25.000Z,11.52
2022-11-17T11:10:31.000Z,11.54
2022-11-17T11:11:36.000Z,11.54
2022-11-17T11:12:35.000Z,11.56
2022-11-17T11:13:34.000Z,11.60
2022-11-17T11:14:47.000Z,11.61
2022-11-17T11:15:27.000Z,11.61
2022-11-17T11:16:24.000Z,11.61
2022-11-17T11:17:26.000Z,11.60
2022-11-17T11:18:27.000Z,11.58
2022-11-17T11:19:23.000Z,11.57
2022-11-17T11:20:32.000Z,11.56
2022-11-17T11:21:43.000Z,11.59
2022-11-17T11:22:45.000Z,11.58
2022-11-17T11:23:49.000Z,11.57
2022-11-17T11:24:37.000Z,11.59
2022-11-17T11:25:39.000Z,11.58
2022-11-17T11:26:33.000Z,11.58
2022-11-17T11:27:56.000Z,11.60
2022-11-17T11:28:34.000Z,11.61
2022-11-17T11:29:33.000Z,11.64
2022-11-17T11:30:23.000Z,11.64
2022-11-17T11:31:46.000Z,11.66
2022-11-17T11:32:35.000Z,11.64
2022-11-17T11:33:49.000Z,11.65
2022-11-17T11:34:42.000Z,11.66
2022-11-17T11:35:46.000Z,11.67
2022-11-17T11:36:32.000Z,11.67
2022-11-17T11:37:32.000Z,11.71
2022-11-17T11:38:48.000Z,11.74
2022-11-17T11:39:37.000Z,11.72
2022-11-17T11:40:29.000Z,11.75
2022-11-17T11:41:47.000Z,11.78
2022-11-17T11:42:39.000Z,11.80
2022-11-17T11:43:45.000Z,11.83
2022-11-17T11:44:37.000Z,11.79
2022-11-17T11:45:36.000Z,11.82
2022-11-17T11:46:40.000Z,11.83
2022-11-17T11:47:49.000Z,11.79
2022-11-17T11:48:29.000Z,11.81
2022-11-17T11:49:32.000Z,11.83
2022-11-17T11:50:30.000Z,11.84
2022-11-17T11:51:32.000Z,11.88
2022-11-17T11:52:31.000Z,11.91
2022-11-17T11:53:28.000Z,11.92
2022-11-17T11:54:32.000Z,11.93
2022-11-17T11:55:32.000Z,11.94
2022-11-17T11:56:32.000Z,11.97
2022-11-17T11:57:37.000Z,11.99
2022-11-17T11:58:23.000Z,11.96
2022-11-17T11:59:36.000Z,11.98
2022-11-17T12:00:22.000Z,12.02
2022-11-17T12:01:24.000Z,12.04
2022-11-17T12:02:32.000Z,12.09
2022-11-17T12:03:30.000Z,12.08
2022-11-17T12:04:43.000Z,12.05
2022-11-17T12:05:32.000Z,12.07
2022-11-17T12:06:38.000Z,12.08
2022-11-17T12:07:40.000Z,12.10
2022-11-17T12:08:37.000Z,12.12
2022-11-17T12:09:36.000Z,12.12
2022-11-17T12:10:44.000Z,12.09
2022-11-17T12:11:29.000Z,12.11
2022-11-17T12:12:31.000Z,12.15
2022-11-17T12:13:23.000Z,12.16
2022-11-17T12:14:23.000Z,12.16
2022-11-17T12:15:34.000Z,12.16
2022-11-17T12:16:29.000Z,12.16
2022-11-17T12:17:24.000Z,12.19
2022-11-17T12:18:30.000Z,12.21
2022-11-17T12:19:50.000Z,12.21
2022-11-17T12:20:32.000Z,12.23
2022-11-17T12:21:24.000Z,12.26
2022-11-17T12:22:44.000Z,12.28
2022-11-17T12:23:33.000Z,12.32
2022-11-17T12:24:39.000Z,12.33
2022-11-17T12:25:28.000Z,12.33
2022-11-17T12:26:28.000Z,12.37
2022-11-17T12:27:32.000Z,12.38
2022-11-17T12:28:29.000Z,12.40
2022-11-17T12:29:27.000Z,12.42
2022-11-17T12:30:32.000Z,12.41
2022-11-17T12:31:45.000Z,12.45
2022-11-17T12:32:32.000Z,12.44
2022-11-17T12:33:42.000Z,12.43
2022-11-17T12:34:28.000Z,12.41
2022-11-17T12:35:28.000Z,12.44
2022-11-17T12:36:37.000Z,12.43
2022-11-17T12:37:25.000Z,12.43
2022-11-17T12:38:37.000Z,12.43
2022-11-17T12:39:32.000Z,12.43
2022-11-17T12:40:42.000Z,12.41
2022-11-17T12:41:32.000Z,12.43
2022-11-17T12:42:23.000Z,12.43
2022-11-17T12:43:24.000Z,12.41
2022-11-17T12:44:45.000Z,12.44
2022-11-17T12:45:22.000Z,12.47
2022-11-17T12:46:24.000Z,12.47
2022-11-17T12:47:25.000Z,12.47
2022-11-17T12:48:28.000Z,12.50
2022-11-17T12:49:39.000Z,12.50
2022-11-17T12:50:39.000Z,12.51
2022-11-17T12:51:50.000Z,12.47
2022-11-17T12:52:35.000Z,12.51